Terminal Aerodrome Forecast
Issued by NWS

Current Version | Previous Version | Text Only | Print | Product List | Glossary Off
Versions: 1 2 3 4 5 6 7 8 9 10 11 12 13 14 15 16 17 18 19 20 21 22 23 24

000
FTUS41 KPBZ 280500
TAFHLG
TAF
KHLG 280538Z 2806/2906 25005KT P6SM SCT050
     FM280800 29005KT 5SM BR BKN015
     FM281500 31013G15KT P6SM VCSH BKN025
     FM282100 31013G18KT P6SM BKN035
     FM290300 30005KT P6SM FEW035=

USA.gov is the U.S. government's official web portal to all federal, state and local government web resources and services.